Cooperstown, North Dakota
Current Conditions -  °F | °C
As of 10:35 AM on Friday 21 Nov 2014 (Local Time) from KBAC Reporting Station
Light Snow Light Snow  
Wind Chill: -13°   Ceiling: Unl
Heat Index: -5°   Visibility: 10mi
Dew Point: -7°   Wind: 17mph
Humidity: 86%   Direction: 200°SSW
Pressure: 29.77"   Gusts: 26mph
Location:  47.44°N, 98.12°W
Report Text: KBAC 211635Z AUTO 20015G23KT 10SM -SN CLR M05/M07 A2977 RMK AO2
Loading
Personal Weather Stations






























Interactive Weather Map New forecast layout! Learn more

10-Day Weather Forecast

Advertisements
Track Severe Weather on mobile